Terminal Aerodrome Forecast
Issued by NWS Charleston, WV

Home | Current Version | Previous Version | Text Only | Print | Product List | Glossary On
Versions: 1 2 3 4 5 6 7 8 9 10 11 12 13 14 15 16 17 18 19 20 21 22 23 24 25
000
FTUS41 KRLX 231400 AAA
TAFEKN
TAF AMD
KEKN 231429Z 2314/2412 00000KT 6SM BR SCT010 BKN015
     FM231600 VRB03KT P6SM BKN025
     FM231900 03003KT P6SM VCTS BKN028CB
     FM232300 VRB03KT P6SM BKN030
     FM240400 12006KT 4SM BR BKN030
     FM240800 VRB03KT 2SM BR BKN002
     FM241000 VRB03KT 1/2SM FG BKN002=

USA.gov is the U.S. government's official web portal to all federal, state and local government web resources and services.